createdAt,value
2022-10-06T00:01:39.297Z,68.06
2022-10-06T00:04:12.968Z,68.20
2022-10-06T00:06:49.170Z,68.27
2022-10-06T00:09:34.197Z,68.19
2022-10-06T00:12:07.701Z,68.26
2022-10-06T00:14:41.610Z,68.19
2022-10-06T00:17:17.459Z,68.19
2022-10-06T00:19:55.766Z,68.21
2022-10-06T00:22:34.377Z,68.28
2022-10-06T00:25:09.600Z,68.46
2022-10-06T00:27:45.466Z,68.49
2022-10-06T00:30:21.219Z,68.56
2022-10-06T00:32:57.518Z,68.55
2022-10-06T00:35:36.676Z,68.53
2022-10-06T00:38:12.248Z,68.46
2022-10-06T00:40:55.484Z,68.35
2022-10-06T00:43:46.022Z,68.32
2022-10-06T00:46:26.771Z,68.20
2022-10-06T00:49:07.600Z,68.21
2022-10-06T00:51:47.584Z,68.47
2022-10-06T00:54:22.487Z,68.51
2022-10-06T00:56:59.647Z,68.58
2022-10-06T00:59:35.770Z,68.57
2022-10-06T01:02:15.007Z,68.66
2022-10-06T01:04:52.408Z,68.98
2022-10-06T01:07:29.002Z,68.93
2022-10-06T01:10:06.188Z,68.97
2022-10-06T01:12:40.343Z,68.99
2022-10-06T01:15:17.848Z,69.04
2022-10-06T01:18:15.861Z,69.10
2022-10-06T01:20:54.977Z,69.14
2022-10-06T01:23:32.435Z,69.26
2022-10-06T01:26:18.771Z,69.18
2022-10-06T01:28:52.952Z,69.18
2022-10-06T01:31:27.314Z,69.21
2022-10-06T01:34:00.941Z,69.25
2022-10-06T01:36:34.979Z,69.34
2022-10-06T01:39:08.491Z,69.28
2022-10-06T01:41:42.750Z,69.44
2022-10-06T01:44:16.452Z,69.35
2022-10-06T01:46:50.749Z,69.40
2022-10-06T01:49:24.169Z,69.40
2022-10-06T01:52:00.862Z,69.39
2022-10-06T01:54:34.626Z,69.56
2022-10-06T01:57:09.021Z,69.50
2022-10-06T01:59:42.304Z,69.60
2022-10-06T02:02:15.891Z,69.48
2022-10-06T02:04:49.692Z,69.53
2022-10-06T02:07:23.697Z,69.50
2022-10-06T02:09:59.858Z,69.53
2022-10-06T02:12:38.005Z,69.73
2022-10-06T02:15:15.157Z,69.66
2022-10-06T02:17:49.145Z,69.77
2022-10-06T02:20:22.636Z,69.79
2022-10-06T02:22:56.485Z,69.89
2022-10-06T02:25:30.118Z,69.95
2022-10-06T02:28:03.439Z,69.94
2022-10-06T02:30:38.045Z,69.92
2022-10-06T02:33:11.641Z,70.10
2022-10-06T02:35:45.588Z,70.05
2022-10-06T02:38:19.262Z,70.09
2022-10-06T02:40:53.376Z,70.07
2022-10-06T02:43:29.260Z,70.33
2022-10-06T02:46:04.930Z,70.13
2022-10-06T02:48:40.052Z,70.07
2022-10-06T02:51:16.066Z,70.00
2022-10-06T02:53:51.247Z,70.01
2022-10-06T02:56:26.426Z,70.24
2022-10-06T02:59:00.004Z,70.07
2022-10-06T03:01:36.308Z,70.17
2022-10-06T03:04:16.518Z,70.15
2022-10-06T03:06:50.508Z,70.23
2022-10-06T03:09:37.972Z,70.18
2022-10-06T03:12:11.654Z,70.31
2022-10-06T03:14:47.257Z,70.32
2022-10-06T03:17:20.534Z,70.42
2022-10-06T03:19:58.412Z,70.38
2022-10-06T03:22:33.183Z,70.22
2022-10-06T03:25:06.611Z,70.27
2022-10-06T03:27:39.962Z,70.20
2022-10-06T03:30:15.284Z,70.23
2022-10-06T03:32:48.868Z,70.21
2022-10-06T03:35:22.288Z,70.25
2022-10-06T03:37:56.295Z,70.33
2022-10-06T03:40:29.795Z,70.37
2022-10-06T03:43:03.404Z,70.41
2022-10-06T03:45:36.970Z,70.32
2022-10-06T03:48:10.922Z,70.43
2022-10-06T03:50:45.220Z,70.28
2022-10-06T03:53:18.409Z,70.25
2022-10-06T03:55:51.613Z,70.34
2022-10-06T03:58:26.336Z,70.31
2022-10-06T04:01:06.947Z,70.42
2022-10-06T04:03:40.691Z,70.26
2022-10-06T04:06:19.313Z,70.25
2022-10-06T04:08:53.998Z,70.29
2022-10-06T04:11:29.138Z,70.11
2022-10-06T04:14:04.629Z,70.23
2022-10-06T04:16:40.378Z,70.19
2022-10-06T04:19:16.682Z,70.19
2022-10-06T04:21:53.977Z,70.23
2022-10-06T04:24:30.414Z,70.30
2022-10-06T04:27:18.532Z,70.41
2022-10-06T04:29:58.768Z,70.32
2022-10-06T04:32:32.648Z,70.34
2022-10-06T04:35:10.775Z,70.34
2022-10-06T04:37:48.251Z,70.32
2022-10-06T04:40:21.746Z,70.38
2022-10-06T04:42:56.655Z,70.46
2022-10-06T04:45:30.003Z,70.53
2022-10-06T04:48:03.425Z,70.48
2022-10-06T04:50:37.234Z,70.54
2022-10-06T04:53:13.974Z,70.35
2022-10-06T04:56:08.698Z,70.28
2022-10-06T04:58:45.530Z,70.34
2022-10-06T05:01:20.835Z,70.34
2022-10-06T05:03:56.193Z,70.43
2022-10-06T05:06:32.024Z,70.52
2022-10-06T05:09:08.269Z,70.54
2022-10-06T05:11:43.437Z,70.55
2022-10-06T05:14:19.864Z,70.48
2022-10-06T05:16:55.549Z,70.40
2022-10-06T05:19:34.574Z,70.44
2022-10-06T05:22:08.594Z,70.45
2022-10-06T05:24:42.432Z,70.54
2022-10-06T05:27:15.990Z,70.50
2022-10-06T05:29:49.540Z,70.47
2022-10-06T05:32:24.704Z,70.47
2022-10-06T05:34:58.638Z,70.39
2022-10-06T05:37:32.083Z,70.46
2022-10-06T05:40:05.431Z,70.50
2022-10-06T05:42:43.149Z,70.67
2022-10-06T05:45:18.294Z,70.28
2022-10-06T05:47:52.066Z,69.93
2022-10-06T05:50:26.171Z,69.88
2022-10-06T05:52:59.805Z,69.82
2022-10-06T05:55:33.633Z,69.80
2022-10-06T05:58:06.876Z,69.76
2022-10-06T06:00:40.732Z,69.68
2022-10-06T06:03:14.357Z,69.59
2022-10-06T06:05:47.889Z,69.31
2022-10-06T06:08:22.186Z,70.54
2022-10-06T06:10:56.101Z,72.23
2022-10-06T06:13:29.500Z,71.15
2022-10-06T06:16:15.272Z,66.81
2022-10-06T06:18:49.438Z,63.87
2022-10-06T06:21:24.343Z,63.17
2022-10-06T06:23:58.430Z,62.49
2022-10-06T06:26:33.087Z,63.04
2022-10-06T06:29:06.805Z,61.90
2022-10-06T06:31:46.606Z,62.51
2022-10-06T06:34:20.296Z,61.94
2022-10-06T06:37:03.629Z,60.73
2022-10-06T06:39:40.920Z,60.04
2022-10-06T06:42:15.044Z,59.59
2022-10-06T06:45:10.660Z,59.82
2022-10-06T06:48:02.237Z,60.30
2022-10-06T06:50:36.321Z,60.47
2022-10-06T06:53:15.476Z,61.00
2022-10-06T06:55:53.467Z,61.28
2022-10-06T06:58:29.090Z,61.70
2022-10-06T07:01:14.494Z,61.98
2022-10-06T07:04:01.283Z,62.31
2022-10-06T07:06:47.897Z,62.69
2022-10-06T07:09:32.736Z,63.03
2022-10-06T07:12:17.317Z,63.23
2022-10-06T07:15:10.324Z,63.46
2022-10-06T07:18:04.405Z,63.70
2022-10-06T07:20:55.899Z,63.98
2022-10-06T07:23:47.599Z,64.00
2022-10-06T07:26:24.018Z,64.17
2022-10-06T07:29:00.411Z,64.37
2022-10-06T07:31:34.769Z,64.69
2022-10-06T07:34:08.629Z,64.85
2022-10-06T07:36:43.788Z,64.75
2022-10-06T07:39:17.465Z,64.86
2022-10-06T07:41:51.203Z,65.03
2022-10-06T07:44:24.735Z,65.17
2022-10-06T07:46:58.519Z,65.39
2022-10-06T07:49:51.886Z,65.32
2022-10-06T07:52:25.716Z,65.40
2022-10-06T07:54:59.890Z,65.42
2022-10-06T07:57:59.946Z,65.54
2022-10-06T08:03:10.932Z,66.07
2022-10-06T08:05:44.431Z,66.20
2022-10-06T08:08:19.109Z,66.47
2022-10-06T08:11:01.388Z,66.62
2022-10-06T08:13:36.698Z,66.68
2022-10-06T08:16:12.397Z,66.67
2022-10-06T08:18:50.497Z,66.34
2022-10-06T08:21:25.881Z,66.06
2022-10-06T08:24:03.545Z,66.22
2022-10-06T08:26:37.258Z,66.17
2022-10-06T08:29:11.866Z,65.76
2022-10-06T08:31:45.612Z,65.13
2022-10-06T08:34:19.387Z,65.00
2022-10-06T08:37:18.744Z,64.45
2022-10-06T08:39:46.755Z,64.29
2022-10-06T08:42:25.484Z,63.93
2022-10-06T08:44:59.864Z,63.71
2022-10-06T08:47:37.757Z,63.88
2022-10-06T08:50:15.231Z,64.10
2022-10-06T08:52:59.080Z,63.84
2022-10-06T08:55:48.191Z,63.95
2022-10-06T08:58:53.879Z,63.63
2022-10-06T09:01:30.634Z,63.88
2022-10-06T09:04:07.611Z,64.15
2022-10-06T09:06:52.262Z,63.92
2022-10-06T09:09:57.354Z,63.41
2022-10-06T09:12:38.059Z,63.17
2022-10-06T09:15:28.660Z,63.09
2022-10-06T09:18:11.085Z,63.02
2022-10-06T09:20:52.240Z,62.65
2022-10-06T09:23:40.558Z,62.58
2022-10-06T09:26:17.209Z,62.69
2022-10-06T09:28:50.970Z,62.77
2022-10-06T09:31:27.241Z,62.50
2022-10-06T09:34:06.295Z,62.27
2022-10-06T09:37:03.518Z,61.81
2022-10-06T09:39:38.980Z,61.87
2022-10-06T09:42:20.620Z,61.69
2022-10-06T09:45:06.980Z,61.63
2022-10-06T09:47:46.384Z,61.80
2022-10-06T09:50:25.860Z,61.48
2022-10-06T09:53:22.326Z,61.62
2022-10-06T09:55:56.982Z,61.67
2022-10-06T09:58:34.912Z,61.62
2022-10-06T10:01:11.040Z,61.16
2022-10-06T10:06:46.767Z,61.29
2022-10-06T10:09:28.109Z,61.31
2022-10-06T10:12:33.080Z,61.73
2022-10-06T10:15:24.431Z,61.12
2022-10-06T10:18:00.069Z,60.71
2022-10-06T10:20:37.923Z,59.83
2022-10-06T10:23:30.086Z,59.01
2022-10-06T10:26:22.742Z,58.81
2022-10-06T10:29:16.841Z,59.30
2022-10-06T10:32:10.198Z,59.04
2022-10-06T10:35:03.617Z,59.33
2022-10-06T10:37:44.596Z,59.39
2022-10-06T10:40:32.751Z,59.41
2022-10-06T10:43:33.491Z,59.54
2022-10-06T10:46:32.196Z,59.42
2022-10-06T10:49:13.372Z,59.60
2022-10-06T10:51:55.018Z,60.05
2022-10-06T10:54:29.577Z,60.23
2022-10-06T10:57:03.936Z,60.33
2022-10-06T10:59:42.691Z,60.81
2022-10-06T11:02:14.743Z,60.91
2022-10-06T11:04:50.121Z,61.03
2022-10-06T11:07:30.157Z,61.13
2022-10-06T11:10:13.749Z,61.35
2022-10-06T11:13:04.913Z,61.60
2022-10-06T11:16:12.342Z,61.75
2022-10-06T11:18:57.804Z,61.99
2022-10-06T11:21:37.993Z,62.31
2022-10-06T11:24:18.109Z,62.25
2022-10-06T11:27:11.413Z,62.22
2022-10-06T11:30:03.964Z,62.18
2022-10-06T11:32:47.843Z,61.89
2022-10-06T11:35:27.230Z,62.04
2022-10-06T11:38:07.558Z,61.85
2022-10-06T11:41:10.249Z,61.54
2022-10-06T11:43:50.473Z,61.28
2022-10-06T11:46:35.805Z,60.96
2022-10-06T11:49:53.901Z,60.92
2022-10-06T11:52:49.965Z,60.45
2022-10-06T11:55:29.395Z,60.26
2022-10-06T12:01:55.259Z,60.62
2022-10-06T12:04:28.850Z,60.78
2022-10-06T12:07:06.920Z,61.19
2022-10-06T12:10:27.727Z,61.02
2022-10-06T12:13:49.285Z,60.28
2022-10-06T12:19:27.818Z,59.27
2022-10-06T12:22:23.067Z,59.20
2022-10-06T12:25:05.765Z,58.62
2022-10-06T12:27:52.747Z,58.25
2022-10-06T12:30:30.563Z,57.92
2022-10-06T12:33:06.061Z,57.76
2022-10-06T12:35:41.038Z,57.99
2022-10-06T12:39:02.643Z,57.62
2022-10-06T12:42:00.692Z,57.42
2022-10-06T12:44:39.412Z,57.43
2022-10-06T12:47:21.954Z,57.65
2022-10-06T12:49:56.938Z,57.85
2022-10-06T12:52:48.756Z,58.36
2022-10-06T12:56:00.300Z,58.07
2022-10-06T12:58:34.236Z,57.70
2022-10-06T13:01:10.591Z,57.71
2022-10-06T13:03:49.116Z,58.06
2022-10-06T13:06:25.790Z,58.25
2022-10-06T13:09:15.183Z,58.14
2022-10-06T13:11:49.613Z,58.13
2022-10-06T13:14:23.208Z,58.43
2022-10-06T13:16:58.537Z,58.64
2022-10-06T13:19:37.093Z,58.75
2022-10-06T13:22:12.698Z,58.84
2022-10-06T13:24:45.880Z,58.69
2022-10-06T13:27:21.805Z,58.58
2022-10-06T13:30:19.651Z,58.43
2022-10-06T13:32:56.598Z,58.15
2022-10-06T13:35:30.274Z,58.03
2022-10-06T13:38:06.097Z,57.63
2022-10-06T13:40:45.225Z,57.45
2022-10-06T13:43:19.748Z,57.30
2022-10-06T13:45:54.382Z,57.33
2022-10-06T13:48:30.510Z,57.34
2022-10-06T13:51:03.821Z,57.42
2022-10-06T13:53:36.885Z,57.34
2022-10-06T13:56:34.863Z,57.11
2022-10-06T13:59:31.263Z,56.77
2022-10-06T14:02:23.532Z,56.29
2022-10-06T14:05:31.648Z,55.64
2022-10-06T14:08:17.599Z,54.71
2022-10-06T14:10:53.557Z,54.21
2022-10-06T14:13:29.452Z,53.88
2022-10-06T14:16:04.387Z,53.21
2022-10-06T14:18:42.093Z,52.92
2022-10-06T14:21:30.907Z,52.53
2022-10-06T14:24:07.548Z,52.46
2022-10-06T14:26:44.201Z,52.27
2022-10-06T14:29:18.017Z,52.19
2022-10-06T14:31:51.715Z,52.13
2022-10-06T14:34:25.710Z,51.85
2022-10-06T14:36:59.143Z,51.81
2022-10-06T14:39:32.511Z,51.84
2022-10-06T14:42:06.311Z,52.07
2022-10-06T14:44:40.065Z,51.81
2022-10-06T14:47:14.201Z,51.90
2022-10-06T14:49:48.096Z,51.94
2022-10-06T14:52:22.748Z,52.00
2022-10-06T14:54:56.906Z,51.78
2022-10-06T14:57:30.559Z,51.30
2022-10-06T15:00:05.868Z,51.05
2022-10-06T15:02:39.502Z,50.78
2022-10-06T15:05:14.095Z,50.65
2022-10-06T15:08:04.904Z,50.64
2022-10-06T15:10:39.318Z,50.97
2022-10-06T15:13:12.471Z,51.10
2022-10-06T15:15:46.263Z,51.05
2022-10-06T15:18:19.427Z,50.84
2022-10-06T15:20:53.125Z,50.67
2022-10-06T15:23:26.257Z,50.76
2022-10-06T15:26:16.721Z,50.83
2022-10-06T15:29:03.416Z,50.91
2022-10-06T15:31:38.978Z,50.90
2022-10-06T15:34:14.597Z,50.94
2022-10-06T15:36:48.462Z,51.03
2022-10-06T15:39:24.983Z,51.14
2022-10-06T15:41:58.533Z,51.19
2022-10-06T15:44:35.367Z,51.25
2022-10-06T15:47:09.548Z,51.41
2022-10-06T15:49:42.715Z,51.63
2022-10-06T15:52:17.943Z,51.66
2022-10-06T15:54:52.369Z,51.86
2022-10-06T15:57:25.773Z,52.03
2022-10-06T15:59:59.646Z,52.14
2022-10-06T16:02:35.953Z,52.27
2022-10-06T16:05:33.584Z,52.45
2022-10-06T16:08:07.029Z,52.74
2022-10-06T16:10:40.694Z,52.97
2022-10-06T16:13:14.063Z,52.97
2022-10-06T16:15:53.850Z,53.20
2022-10-06T16:18:28.957Z,53.44
2022-10-06T16:21:02.353Z,53.69
2022-10-06T16:23:36.050Z,53.75
2022-10-06T16:26:09.416Z,53.98
2022-10-06T16:28:42.732Z,54.03
2022-10-06T16:31:16.552Z,54.22
2022-10-06T16:33:50.537Z,54.34
2022-10-06T16:36:24.289Z,54.41
2022-10-06T16:38:58.754Z,54.39
2022-10-06T16:41:32.338Z,54.50
2022-10-06T16:44:06.056Z,54.67
2022-10-06T16:46:39.679Z,54.78
2022-10-06T16:49:13.713Z,54.82
2022-10-06T16:51:47.657Z,54.76
2022-10-06T16:54:21.335Z,54.73
2022-10-06T16:56:55.643Z,54.93
2022-10-06T16:59:29.816Z,54.84
2022-10-06T17:02:03.287Z,54.93
2022-10-06T17:04:37.439Z,54.99
2022-10-06T17:07:11.180Z,54.99
2022-10-06T17:10:01.558Z,54.99
2022-10-06T17:12:38.549Z,54.84
2022-10-06T17:15:13.419Z,54.91
2022-10-06T17:17:47.015Z,54.99
2022-10-06T17:20:20.652Z,55.06
2022-10-06T17:22:55.606Z,55.13
2022-10-06T17:25:29.591Z,55.06
2022-10-06T17:28:02.921Z,55.14
2022-10-06T17:30:36.134Z,55.12
2022-10-06T17:33:09.588Z,55.16
2022-10-06T17:35:42.990Z,55.31
2022-10-06T17:38:16.296Z,55.51
2022-10-06T17:40:49.990Z,55.53
2022-10-06T17:43:23.727Z,55.60
2022-10-06T17:45:57.234Z,55.90
2022-10-06T17:48:31.009Z,55.80
2022-10-06T17:51:04.428Z,55.96
2022-10-06T17:53:39.936Z,55.99
2022-10-06T17:56:14.580Z,56.14
2022-10-06T17:58:53.891Z,56.24
2022-10-06T18:01:29.609Z,56.21
2022-10-06T18:04:04.557Z,56.23
2022-10-06T18:06:40.374Z,56.28
2022-10-06T18:09:14.950Z,56.44
2022-10-06T18:11:55.676Z,56.51
2022-10-06T18:14:32.674Z,56.61
2022-10-06T18:17:06.404Z,56.65
2022-10-06T18:19:39.899Z,56.79
2022-10-06T18:22:14.063Z,56.88
2022-10-06T18:24:47.912Z,56.92
2022-10-06T18:27:24.889Z,57.12
2022-10-06T18:29:58.638Z,57.41
2022-10-06T18:38:22.424Z,57.81
2022-10-06T18:41:02.363Z,57.72
2022-10-06T18:43:36.230Z,57.65
2022-10-06T18:46:30.233Z,57.60
2022-10-06T18:49:10.794Z,57.66
2022-10-06T18:51:46.549Z,57.75
2022-10-06T18:54:22.576Z,57.82
2022-10-06T18:56:56.666Z,57.82
2022-10-06T18:59:31.715Z,58.04
2022-10-06T19:02:06.515Z,58.21
2022-10-06T19:04:41.407Z,58.43
2022-10-06T19:07:15.433Z,58.51
2022-10-06T19:09:51.107Z,58.67
2022-10-06T19:12:24.802Z,58.80
2022-10-06T19:14:59.238Z,58.92
2022-10-06T19:17:33.661Z,59.03
2022-10-06T19:20:11.861Z,59.25
2022-10-06T19:22:48.025Z,59.42
2022-10-06T19:25:22.299Z,59.26
2022-10-06T19:27:56.517Z,59.29
2022-10-06T19:30:30.272Z,59.52
2022-10-06T19:33:05.085Z,59.58
2022-10-06T19:35:39.471Z,59.59
2022-10-06T19:38:12.680Z,59.82
2022-10-06T19:40:46.939Z,59.89
2022-10-06T19:43:22.348Z,60.08
2022-10-06T19:46:00.791Z,60.24
2022-10-06T19:48:34.866Z,60.37
2022-10-06T19:51:17.654Z,60.51
2022-10-06T19:53:52.181Z,60.60
2022-10-06T19:56:31.132Z,60.61
2022-10-06T19:59:06.031Z,60.67
2022-10-06T20:01:39.347Z,60.75
2022-10-06T20:04:13.660Z,60.99
2022-10-06T20:06:47.586Z,61.06
2022-10-06T20:09:22.578Z,61.19
2022-10-06T20:11:56.291Z,61.44
2022-10-06T20:14:29.874Z,61.49
2022-10-06T20:17:04.393Z,61.51
2022-10-06T20:19:38.816Z,61.53
2022-10-06T20:22:12.859Z,61.85
2022-10-06T20:24:48.092Z,61.80
2022-10-06T20:27:22.178Z,61.70
2022-10-06T20:29:58.414Z,61.77
2022-10-06T20:32:32.663Z,61.83
2022-10-06T20:35:06.734Z,61.88
2022-10-06T20:37:42.468Z,61.94
2022-10-06T20:40:33.892Z,62.07
2022-10-06T20:43:07.280Z,62.17
2022-10-06T20:45:40.605Z,62.29
2022-10-06T20:48:14.686Z,62.28
2022-10-06T20:50:48.437Z,62.39
2022-10-06T20:53:22.139Z,62.40
2022-10-06T20:55:58.797Z,62.35
2022-10-06T20:58:32.880Z,62.29
2022-10-06T21:01:11.316Z,62.28
2022-10-06T21:03:49.387Z,62.16
2022-10-06T21:06:24.178Z,62.27
2022-10-06T21:08:58.642Z,62.44
2022-10-06T21:11:32.718Z,62.67
2022-10-06T21:14:07.962Z,62.63
2022-10-06T21:16:43.289Z,62.65
2022-10-06T21:19:18.403Z,62.65
2022-10-06T21:21:56.506Z,62.64
2022-10-06T21:24:29.914Z,62.66
2022-10-06T21:27:03.640Z,62.87
2022-10-06T21:29:37.019Z,63.07
2022-10-06T21:32:11.376Z,63.26
2022-10-06T21:34:44.804Z,63.07
2022-10-06T21:37:18.507Z,63.08
2022-10-06T21:39:53.105Z,63.14
2022-10-06T21:42:26.794Z,63.22
2022-10-06T21:45:00.477Z,63.29
2022-10-06T21:47:34.935Z,63.26
2022-10-06T21:50:10.281Z,63.25
2022-10-06T21:52:44.283Z,63.29
2022-10-06T21:55:18.022Z,63.33
2022-10-06T21:57:52.383Z,63.31
2022-10-06T22:00:26.171Z,63.38
2022-10-06T22:02:59.887Z,63.46
2022-10-06T22:05:34.723Z,63.42
2022-10-06T22:08:08.322Z,63.67
2022-10-06T22:10:41.974Z,63.69
2022-10-06T22:13:15.629Z,63.78
2022-10-06T22:15:49.255Z,63.87
2022-10-06T22:18:22.929Z,63.88
2022-10-06T22:20:56.323Z,63.79
2022-10-06T22:23:29.942Z,63.78
2022-10-06T22:26:04.107Z,63.91
2022-10-06T22:28:38.140Z,64.00
2022-10-06T22:31:13.408Z,64.06
2022-10-06T22:33:51.635Z,64.24
2022-10-06T22:36:25.798Z,64.26
2022-10-06T22:38:59.868Z,64.50
2022-10-06T22:41:34.107Z,64.61
2022-10-06T22:44:07.923Z,64.78
2022-10-06T22:46:41.568Z,64.81
2022-10-06T22:49:15.151Z,64.57
2022-10-06T22:51:48.558Z,64.56
2022-10-06T22:54:26.652Z,64.67
2022-10-06T22:57:00.100Z,64.68
2022-10-06T22:59:34.185Z,64.75
2022-10-06T23:02:07.612Z,64.81
2022-10-06T23:04:41.289Z,64.83
2022-10-06T23:07:14.660Z,65.05
2022-10-06T23:09:49.043Z,65.06
2022-10-06T23:12:22.904Z,65.00
2022-10-06T23:14:56.591Z,65.02
2022-10-06T23:17:30.018Z,65.03
2022-10-06T23:20:04.277Z,65.06
2022-10-06T23:22:38.305Z,64.98
2022-10-06T23:25:13.286Z,64.99
2022-10-06T23:27:46.988Z,64.98
2022-10-06T23:30:21.059Z,65.37
2022-10-06T23:32:54.569Z,65.46
2022-10-06T23:35:28.023Z,65.16
2022-10-06T23:38:01.597Z,65.17
2022-10-06T23:40:35.864Z,65.22
2022-10-06T23:43:09.357Z,65.29
2022-10-06T23:45:42.853Z,65.26
2022-10-06T23:48:16.886Z,65.43
2022-10-06T23:51:00.825Z,65.45
2022-10-06T23:53:35.307Z,65.61
2022-10-06T23:56:09.430Z,65.63
2022-10-06T23:58:43.598Z,65.51
